Terminal Aerodrome Forecast
Issued by NWS

Home | Current Version | Previous Version | Text Only | Print | Product List | Glossary On
Versions: 1 2 3 4 5 6 7 8 9 10 11 12 13 14 15 16 17 18
331
FTUS43 KBIS 140427 AAB
TAFJMS
TAF AMD
KJMS 140427Z 1404/1424 15017KT 1/2SM SN FZFG VV006
     FM140500 15020KT 3/4SM -SN BLSN VV008
     FM140700 15016KT 3SM -SN OVC010
     FM141500 19008KT P6SM VCSH OVC010
     FM141700 26008KT P6SM VCSH OVC008=

USA.gov is the U.S. government's official web portal to all federal, state and local government web resources and services.